Time;durP1;ratioP1;P1;durP2;ratioP2;P2;SDS_P1;SDS_P2;PMS_P1;PMS_P2;Temp;Humidity;BMP_temperature;BMP_pressure;BME280_temperature;BME280_humidity;BME280_pressure;Samples;Min_cycle;Max_cycle;Signal;HPM_P1;HPM_P2
2022/07/22 00:01:31;;;;;;;18.00;12.00;;;18.90;91.70;;;;;;5046808;28;20506;-48
2022/07/22 00:03:58;;;;;;;12.23;10.40;;;18.80;91.70;;;;;;5042490;28;20482;-48
2022/07/22 00:06:25;;;;;;;11.77;9.67;;;18.90;91.60;;;;;;5039568;28;20587;-48
2022/07/22 00:08:52;;;;;;;21.60;11.03;;;19.00;91.50;;;;;;5035123;28;20487;-48
2022/07/22 00:11:20;;;;;;;11.80;10.53;;;19.00;91.30;;;;;;5024973;28;20486;-48
2022/07/22 00:13:47;;;;;;;11.03;9.27;;;19.00;91.20;;;;;;5035763;28;20883;-48
2022/07/22 00:16:14;;;;;;;14.83;11.03;;;19.00;91.30;;;;;;5037132;28;20877;-48
2022/07/22 00:18:40;;;;;;;15.60;10.90;;;18.80;92.10;;;;;;5039289;28;20468;-48
2022/07/22 00:21:07;;;;;;;15.40;11.70;;;18.70;92.50;;;;;;5038551;28;20479;-48
2022/07/22 00:23:34;;;;;;;15.97;10.97;;;18.50;92.80;;;;;;5040282;28;20479;-48
2022/07/22 00:26:01;;;;;;;12.73;10.63;;;18.50;92.30;;;;;;5037219;28;20495;-48
2022/07/22 00:28:29;;;;;;;18.70;10.97;;;18.50;92.20;;;;;;5038957;28;20475;-48
2022/07/22 00:30:56;;;;;;;13.90;10.10;;;18.50;92.10;;;;;;5039798;28;20480;-48
2022/07/22 00:33:23;;;;;;;13.67;11.10;;;18.50;92.30;;;;;;5040387;28;20493;-48
2022/07/22 00:35:50;;;;;;;12.73;11.10;;;18.40;92.00;;;;;;5031724;28;20475;-48
2022/07/22 00:38:17;;;;;;;12.87;10.90;;;18.40;92.50;;;;;;5044062;28;20487;-48
2022/07/22 00:40:43;;;;;;;15.10;11.80;;;18.40;92.50;;;;;;5039817;28;20493;-48
2022/07/22 00:43:10;;;;;;;14.83;10.83;;;18.40;92.60;;;;;;5039645;28;20493;-48
2022/07/22 00:45:39;;;;;;;17.00;11.00;;;18.50;92.20;;;;;;5042893;28;20502;-47
2022/07/22 00:48:06;;;;;;;15.83;11.70;;;18.50;92.50;;;;;;5041408;28;20524;-48
2022/07/22 00:50:33;;;;;;;15.47;11.37;;;18.50;92.10;;;;;;5043982;28;20485;-47
2022/07/22 00:52:59;;;;;;;17.00;11.37;;;18.50;92.00;;;;;;5044727;28;20492;-48
2022/07/22 00:55:26;;;;;;;13.77;10.03;;;18.50;91.90;;;;;;5040271;28;20487;-48
2022/07/22 00:57:53;;;;;;;11.07;9.37;;;18.40;92.10;;;;;;5041376;28;20502;-47
2022/07/22 01:00:22;;;;;;;13.83;9.70;;;18.40;92.00;;;;;;5043184;28;20485;-48
2022/07/22 01:02:50;;;;;;;12.57;9.80;;;18.30;92.10;;;;;;5042016;28;20485;-48
2022/07/22 01:05:18;;;;;;;12.97;11.27;;;18.10;92.40;;;;;;5042942;28;20517;-47
2022/07/22 01:07:45;;;;;;;16.33;10.37;;;17.90;92.80;;;;;;5042945;28;20562;-48
2022/07/22 01:10:11;;;;;;;12.60;11.10;;;17.80;93.30;;;;;;5032983;28;20567;-48
2022/07/22 01:12:38;;;;;;;16.37;10.77;;;17.60;93.90;;;;;;5053896;28;20522;-47
2022/07/22 01:15:06;;;;;;;17.77;11.37;;;17.60;93.80;;;;;;5041037;28;20899;-48
2022/07/22 01:17:33;;;;;;;13.23;11.60;;;17.60;93.80;;;;;;5041615;28;20486;-47
2022/07/22 01:20:03;;;;;;;13.27;11.53;;;17.70;93.60;;;;;;5043897;28;20483;-48
2022/07/22 01:22:31;;;;;;;15.60;11.70;;;17.70;93.50;;;;;;5036073;28;20559;-48
2022/07/22 01:24:58;;;;;;;13.70;10.50;;;17.70;93.30;;;;;;5049019;28;20490;-49
2022/07/22 01:27:25;;;;;;;11.90;9.90;;;17.70;93.40;;;;;;5041609;28;20472;-47
2022/07/22 01:29:52;;;;;;;10.53;9.30;;;17.70;93.30;;;;;;5042030;28;20467;-48
2022/07/22 01:32:18;;;;;;;12.97;10.30;;;17.60;93.10;;;;;;5039536;28;20482;-48
2022/07/22 01:34:45;;;;;;;14.00;11.73;;;17.60;93.30;;;;;;5043676;28;20494;-48
2022/07/22 01:37:13;;;;;;;15.67;10.67;;;17.60;93.00;;;;;;5041218;28;20498;-48
2022/07/22 01:39:40;;;;;;;13.30;11.23;;;17.60;93.00;;;;;;5042392;28;21036;-48
2022/07/22 01:42:07;;;;;;;11.80;10.03;;;17.70;93.00;;;;;;5043532;28;20483;-48
2022/07/22 01:44:34;;;;;;;17.07;10.63;;;17.70;93.00;;;;;;5042808;28;21084;-47
2022/07/22 01:47:01;;;;;;;15.67;10.60;;;17.80;93.10;;;;;;5042840;28;20482;-48
2022/07/22 01:49:28;;;;;;;14.77;11.43;;;17.80;93.00;;;;;;5042978;28;21017;-48
2022/07/22 01:51:55;;;;;;;17.00;11.10;;;17.80;92.80;;;;;;5034332;28;20491;-47
2022/07/22 01:54:23;;;;;;;14.13;11.47;;;17.80;92.80;;;;;;5049465;28;20488;-48
2022/07/22 01:56:50;;;;;;;13.60;11.20;;;17.80;93.30;;;;;;5040643;28;20488;-47
2022/07/22 01:59:17;;;;;;;16.47;12.47;;;17.80;92.70;;;;;;5042113;28;20475;-48
2022/07/22 02:01:43;;;;;;;13.00;10.60;;;17.80;92.60;;;;;;5041295;28;20929;-48
2022/07/22 02:04:10;;;;;;;12.30;10.00;;;17.80;92.60;;;;;;5042724;28;20892;-48
2022/07/22 02:06:37;;;;;;;20.43;11.07;;;17.70;92.40;;;;;;5040239;28;20487;-47
2022/07/22 02:09:04;;;;;;;13.20;10.70;;;17.70;92.30;;;;;;5040644;28;20491;-48
2022/07/22 02:11:32;;;;;;;13.80;10.87;;;17.70;92.50;;;;;;5039503;28;20488;-49
2022/07/22 02:13:59;;;;;;;14.93;9.93;;;17.60;92.70;;;;;;5042243;28;20590;-48
2022/07/22 02:16:26;;;;;;;11.63;9.77;;;17.50;92.80;;;;;;5038805;28;20484;-47
2022/07/22 02:18:53;;;;;;;12.13;9.40;;;17.50;92.70;;;;;;5041523;28;20965;-47
2022/07/22 02:21:20;;;;;;;12.23;10.37;;;17.40;92.70;;;;;;5042659;28;20941;-48
2022/07/22 02:23:47;;;;;;;17.47;10.40;;;17.10;93.10;;;;;;5042352;28;20476;-48
2022/07/22 02:26:14;;;;;;;11.60;10.40;;;16.80;94.00;;;;;;5041379;28;20484;-48
2022/07/22 02:28:42;;;;;;;13.77;11.17;;;16.60;94.20;;;;;;5042057;28;20476;-48
2022/07/22 02:31:09;;;;;;;14.00;10.67;;;16.70;94.20;;;;;;5040497;28;20467;-48
2022/07/22 02:33:35;;;;;;;16.20;11.50;;;16.70;94.10;;;;;;5038984;28;20980;-49
2022/07/22 02:36:02;;;;;;;15.93;11.50;;;16.80;94.40;;;;;;5040646;28;20858;-49
2022/07/22 02:38:29;;;;;;;14.03;11.17;;;16.80;94.50;;;;;;5045006;28;20480;-48
2022/07/22 02:40:55;;;;;;;15.60;12.80;;;16.90;94.20;;;;;;5041057;28;20483;-48
2022/07/22 02:43:22;;;;;;;16.73;12.23;;;17.00;94.70;;;;;;5041013;28;20475;-48
2022/07/22 02:45:50;;;;;;;16.60;11.23;;;16.90;94.40;;;;;;5039295;28;20464;-48
2022/07/22 02:48:17;;;;;;;12.23;10.60;;;17.00;94.00;;;;;;5040485;28;20534;-48
2022/07/22 02:50:46;;;;;;;22.07;13.27;;;16.90;94.50;;;;;;5041314;28;20476;-48
2022/07/22 02:53:13;;;;;;;15.50;12.20;;;16.70;95.30;;;;;;5038700;28;20492;-48
2022/07/22 02:55:40;;;;;;;14.27;11.13;;;;;;;;;;5038968;28;20480;-48
2022/07/22 02:58:08;;;;;;;11.83;10.53;;;16.70;94.50;;;;;;5037258;28;21199;-48
2022/07/22 03:00:35;;;;;;;21.73;12.23;;;16.70;94.80;;;;;;5040558;28;20563;-48
2022/07/22 03:03:03;;;;;;;18.60;11.17;;;16.80;94.40;;;;;;5040704;28;21227;-48
2022/07/22 03:05:30;;;;;;;16.17;12.27;;;16.80;94.20;;;;;;5037223;28;20468;-48
2022/07/22 03:07:57;;;;;;;14.63;12.27;;;16.90;94.20;;;;;;5038083;28;20479;-49
2022/07/22 03:10:24;;;;;;;15.03;11.03;;;16.90;94.00;;;;;;5035997;28;20507;-48
2022/07/22 03:12:51;;;;;;;12.57;11.10;;;16.80;94.20;;;;;;5042803;28;20572;-48
2022/07/22 03:15:17;;;;;;;14.03;10.10;;;16.80;94.50;;;;;;5040023;28;20488;-47
2022/07/22 03:17:44;;;;;;;16.67;12.10;;;16.70;94.10;;;;;;5035612;28;20492;-47
2022/07/22 03:20:13;;;;;;;17.47;11.97;;;16.70;94.30;;;;;;5037541;28;20495;-47
2022/07/22 03:22:40;;;;;;;15.80;11.80;;;16.70;94.40;;;;;;5042010;28;20561;-48
2022/07/22 03:25:07;;;;;;;15.00;11.87;;;16.70;94.60;;;;;;5035460;28;20491;-47
2022/07/22 03:27:34;;;;;;;15.50;11.40;;;16.80;94.80;;;;;;5026894;28;20472;-47
2022/07/22 03:30:00;;;;;;;17.53;11.77;;;16.80;94.40;;;;;;5039268;28;20487;-48
2022/07/22 03:32:27;;;;;;;13.27;9.70;;;16.80;94.30;;;;;;5040441;28;20488;-47
2022/07/22 03:34:54;;;;;;;16.67;10.60;;;16.80;94.30;;;;;;5039380;28;20845;-47
2022/07/22 03:37:22;;;;;;;16.03;10.90;;;16.70;94.00;;;;;;5039114;28;20479;-47
2022/07/22 03:39:49;;;;;;;14.40;11.40;;;16.60;93.90;;;;;;5040620;28;20480;-47
2022/07/22 03:42:16;;;;;;;14.00;10.40;;;16.60;94.00;;;;;;5041482;28;21347;-48
2022/07/22 03:44:42;;;;;;;14.33;11.10;;;16.50;94.20;;;;;;5038606;28;20763;-48
2022/07/22 03:47:10;;;;;;;20.87;11.37;;;16.50;94.50;;;;;;5031034;28;20879;-49
2022/07/22 03:49:36;;;;;;;16.50;10.53;;;16.50;94.60;;;;;;5048951;28;20479;-51
2022/07/22 03:52:03;;;;;;;14.73;11.80;;;16.60;94.80;;;;;;5041160;28;20482;-48
2022/07/22 03:54:31;;;;;;;15.30;12.37;;;16.60;94.50;;;;;;5040350;28;20857;-48
2022/07/22 03:56:58;;;;;;;15.10;11.23;;;16.70;94.80;;;;;;5039128;28;20492;-48
2022/07/22 03:59:25;;;;;;;12.07;10.37;;;16.70;94.30;;;;;;5039676;28;20526;-48
2022/07/22 04:01:52;;;;;;;19.70;10.77;;;16.60;93.80;;;;;;5039349;28;20499;-47
2022/07/22 04:04:19;;;;;;;12.40;10.27;;;16.60;93.90;;;;;;5038817;28;20477;-49
2022/07/22 04:06:46;;;;;;;11.93;10.50;;;16.40;94.00;;;;;;5039127;28;20492;-48
2022/07/22 04:09:13;;;;;;;17.57;11.20;;;16.10;94.80;;;;;;5043311;28;20485;-48
2022/07/22 04:11:41;;;;;;;16.70;11.67;;;16.00;95.20;;;;;;5057670;28;20483;-47
2022/07/22 04:14:08;;;;;;;15.90;12.40;;;16.00;95.40;;;;;;5031514;28;20483;-47
2022/07/22 04:16:35;;;;;;;17.80;11.97;;;16.10;95.60;;;;;;5039030;28;20480;-47
2022/07/22 04:19:02;;;;;;;16.03;12.40;;;16.10;95.70;;;;;;5041088;28;20587;-47
2022/07/22 04:21:29;;;;;;;14.10;11.30;;;16.20;95.90;;;;;;5037901;28;20557;-47
2022/07/22 04:23:55;;;;;;;21.07;13.00;;;16.30;95.90;;;;;;5045467;28;20477;-47
2022/07/22 04:26:22;;;;;;;20.27;15.00;;;16.40;96.10;;;;;;5041358;28;21044;-47
2022/07/22 04:28:50;;;;;;;19.13;13.40;;;16.50;96.50;;;;;;5038079;28;20475;-47
2022/07/22 04:31:17;;;;;;;19.40;13.97;;;16.50;96.90;;;;;;5038575;28;20476;-49
2022/07/22 04:33:44;;;;;;;18.23;14.03;;;16.70;97.10;;;;;;5041543;28;20965;-47
2022/07/22 04:36:11;;;;;;;20.27;15.40;;;16.70;97.40;;;;;;5039351;28;21121;-47
2022/07/22 04:38:37;;;;;;;17.83;13.90;;;17.00;96.80;;;;;;5034069;28;20490;-47
2022/07/22 04:41:04;;;;;;;23.70;14.00;;;17.00;97.20;;;;;;5048758;28;20479;-47
2022/07/22 04:43:31;;;;;;;30.83;14.67;;;17.10;97.30;;;;;;5035330;28;20480;-47
2022/07/22 04:46:00;;;;;;;23.97;15.20;;;17.20;97.60;;;;;;5038441;28;20487;-47
2022/07/22 04:48:27;;;;;;;17.43;12.93;;;17.30;97.60;;;;;;5037416;28;20971;-47
2022/07/22 04:50:53;;;;;;;21.37;16.27;;;17.40;97.90;;;;;;5040040;28;20483;-47
2022/07/22 04:53:20;;;;;;;19.47;14.40;;;17.50;98.30;;;;;;5039692;28;20487;-48
2022/07/22 04:55:47;;;;;;;21.90;16.60;;;17.60;98.40;;;;;;5037464;28;20486;-47
2022/07/22 04:58:14;;;;;;;20.73;14.40;;;17.70;98.20;;;;;;5039841;28;20488;-47
2022/07/22 05:00:40;;;;;;;20.67;12.50;;;17.80;98.10;;;;;;5038049;28;20476;-47
2022/07/22 05:03:09;;;;;;;19.30;15.70;;;17.90;98.40;;;;;;5039057;28;20507;-47
2022/07/22 05:05:35;;;;;;;17.13;13.60;;;17.90;98.60;;;;;;5039523;28;20607;-47
2022/07/22 05:08:02;;;;;;;25.07;13.97;;;17.90;98.80;;;;;;5033437;28;21008;-47
2022/07/22 05:10:29;;;;;;;17.87;13.80;;;17.90;99.00;;;;;;5040381;28;20498;-47
2022/07/22 05:12:56;;;;;;;17.83;13.77;;;17.90;99.40;;;;;;5041444;28;20507;-47
2022/07/22 05:15:23;;;;;;;19.60;14.97;;;17.90;99.70;;;;;;5039069;28;21310;-47
2022/07/22 05:17:49;;;;;;;27.77;15.60;;;18.00;99.80;;;;;;5035391;28;20488;-48
2022/07/22 05:20:18;;;;;;;17.40;13.33;;;18.00;99.90;;;;;;5037290;28;20498;-47
2022/07/22 05:22:44;;;;;;;20.83;16.10;;;18.10;99.90;;;;;;5042278;28;20472;-47
2022/07/22 05:25:12;;;;;;;23.47;16.03;;;18.20;99.90;;;;;;5043954;28;20502;-48
2022/07/22 05:27:38;;;;;;;18.30;13.43;;;18.20;99.90;;;;;;5041285;28;20567;-48
2022/07/22 05:30:06;;;;;;;23.50;16.43;;;18.30;99.90;;;;;;5042207;28;20480;-48
2022/07/22 05:32:33;;;;;;;20.97;14.70;;;18.40;99.90;;;;;;5042436;28;20849;-48
2022/07/22 05:35:00;;;;;;;18.20;15.40;;;18.50;99.90;;;;;;5042329;28;20479;-48
2022/07/22 05:37:28;;;;;;;21.80;17.07;;;18.70;99.90;;;;;;5041109;28;20595;-48
2022/07/22 05:39:55;;;;;;;19.40;14.57;;;18.80;99.90;;;;;;5041281;28;20483;-48
2022/07/22 05:42:22;;;;;;;18.97;15.50;;;18.90;99.90;;;;;;5039357;28;20479;-48
2022/07/22 05:44:48;;;;;;;23.93;13.33;;;19.10;99.90;;;;;;5042694;28;20483;-48
2022/07/22 05:47:15;;;;;;;24.80;16.30;;;19.10;99.90;;;;;;5029580;28;20482;-49
2022/07/22 05:49:42;;;;;;;21.00;12.67;;;19.20;99.90;;;;;;5043840;28;20502;-48
2022/07/22 05:52:09;;;;;;;20.20;14.83;;;19.30;99.90;;;;;;5042263;28;20502;-48
2022/07/22 05:54:37;;;;;;;19.30;15.40;;;19.60;99.60;;;;;;5042291;28;21091;-48
2022/07/22 05:57:04;;;;;;;23.03;16.27;;;19.60;99.50;;;;;;5036856;28;20479;-48
2022/07/22 05:59:30;;;;;;;28.97;15.50;;;19.90;99.40;;;;;;5042450;28;21076;-48
2022/07/22 06:01:57;;;;;;;22.90;15.47;;;20.00;99.30;;;;;;5041370;28;20477;-48
2022/07/22 06:04:24;;;;;;;19.77;14.60;;;20.00;99.40;;;;;;5033529;28;20484;-49
2022/07/22 06:06:51;;;;;;;19.97;12.70;;;20.10;99.10;;;;;;5036659;28;20482;-48
2022/07/22 06:09:17;;;;;;;16.40;11.70;;;20.30;98.70;;;;;;5041856;28;20486;-49
2022/07/22 06:11:46;;;;;;;16.47;11.47;;;20.30;98.60;;;;;;5042483;28;20475;-48
2022/07/22 06:14:12;;;;;;;16.43;12.23;;;20.50;98.50;;;;;;5041919;28;21008;-48
2022/07/22 06:16:39;;;;;;;14.80;11.50;;;20.50;98.30;;;;;;5036103;28;20476;-48
2022/07/22 06:19:06;;;;;;;17.17;11.87;;;20.60;98.30;;;;;;5045077;28;20527;-49
2022/07/22 06:21:33;;;;;;;17.93;12.00;;;20.70;97.90;;;;;;5041062;28;21016;-48
2022/07/22 06:23:59;;;;;;;16.37;11.17;;;20.90;97.60;;;;;;5040746;28;20495;-48
2022/07/22 06:26:26;;;;;;;14.83;10.80;;;21.10;97.40;;;;;;5043060;28;20485;-49
2022/07/22 06:28:54;;;;;;;18.90;11.63;;;21.40;96.60;;;;;;5039307;28;20476;-49
2022/07/22 06:31:21;;;;;;;19.23;11.37;;;21.40;96.90;;;;;;5034565;28;20466;-48
2022/07/22 06:33:47;;;;;;;15.17;11.37;;;21.60;96.30;;;;;;5044832;28;20471;-48
2022/07/22 06:36:15;;;;;;;21.00;9.90;;;21.90;96.50;;;;;;5042643;28;20871;-52
2022/07/22 06:38:42;;;;;;;16.70;10.00;;;21.80;96.80;;;;;;5032568;28;20526;-49
2022/07/22 06:41:08;;;;;;;12.77;10.13;;;22.10;96.10;;;;;;5051433;28;20481;-48
2022/07/22 06:43:35;;;;;;;15.40;11.17;;;22.20;95.30;;;;;;5041454;28;20479;-48
2022/07/22 06:46:03;;;;;;;16.40;11.73;;;22.30;95.10;;;;;;5039343;28;20493;-49
2022/07/22 06:48:30;;;;;;;11.43;10.10;;;22.40;95.20;;;;;;5044869;28;21187;-48
2022/07/22 06:50:57;;;;;;;13.90;10.37;;;22.60;94.80;;;;;;5040482;28;20484;-49
2022/07/22 06:53:23;;;;;;;16.40;9.60;;;22.60;94.80;;;;;;5043184;28;20483;-48
2022/07/22 06:55:50;;;;;;;9.93;8.40;;;22.70;94.80;;;;;;5038295;28;20468;-48
2022/07/22 06:58:17;;;;;;;19.70;9.50;;;22.90;94.10;;;;;;5038888;28;20472;-49
2022/07/22 07:00:44;;;;;;;24.37;11.10;;;23.00;94.10;;;;;;5039410;28;20494;-48
2022/07/22 07:03:12;;;;;;;11.90;9.63;;;23.10;93.70;;;;;;5042204;28;20511;-48
2022/07/22 07:05:39;;;;;;;14.20;10.53;;;23.20;93.60;;;;;;5040746;28;20950;-48
2022/07/22 07:08:06;;;;;;;14.30;10.83;;;23.40;93.60;;;;;;5039825;28;20818;-48
2022/07/22 07:10:33;;;;;;;22.80;10.17;;;23.40;93.30;;;;;;5035347;28;20495;-49
2022/07/22 07:13:00;;;;;;;14.70;10.23;;;23.70;93.00;;;;;;5047138;28;20511;-49
2022/07/22 07:15:27;;;;;;;11.60;9.00;;;23.90;92.60;;;;;;5040533;28;20475;-53
2022/07/22 07:17:56;;;;;;;11.07;9.13;;;24.00;92.10;;;;;;5040954;28;20490;-48
2022/07/22 07:20:24;;;;;;;17.00;8.60;;;24.20;92.00;;;;;;5041855;28;20499;-49
2022/07/22 07:22:51;;;;;;;12.40;10.57;;;24.30;91.80;;;;;;5040539;28;20510;-48
2022/07/22 07:25:18;;;;;;;12.30;8.57;;;24.40;91.60;;;;;;5040221;28;20480;-49
2022/07/22 07:27:45;;;;;;;11.83;9.30;;;24.60;91.10;;;;;;5039885;28;20471;-48
2022/07/22 07:30:13;;;;;;;10.10;8.20;;;24.80;91.30;;;;;;5039535;28;20491;-48
2022/07/22 07:32:40;;;;;;;11.03;9.33;;;24.90;90.50;;;;;;5038817;28;20567;-49
2022/07/22 07:35:08;;;;;;;15.93;9.73;;;25.10;90.70;;;;;;5039797;28;20483;-48
2022/07/22 07:37:36;;;;;;;12.53;10.13;;;25.10;90.10;;;;;;5039522;28;20922;-48
2022/07/22 07:40:03;;;;;;;20.60;10.03;;;25.30;90.40;;;;;;5039927;28;20514;-48
2022/07/22 07:42:30;;;;;;;14.30;9.60;;;25.40;89.90;;;;;;5040521;28;21213;-48
2022/07/22 07:44:57;;;;;;;11.20;9.33;;;25.50;89.60;;;;;;5037334;28;20479;-48
2022/07/22 07:47:24;;;;;;;10.83;9.70;;;25.60;88.90;;;;;;5038161;28;20486;-48
2022/07/22 07:49:50;;;;;;;12.53;8.93;;;25.80;89.20;;;;;;5040429;28;20482;-48
2022/07/22 07:52:18;;;;;;;13.37;9.13;;;26.00;88.90;;;;;;5040687;28;20479;-48
2022/07/22 07:54:47;;;;;;;13.60;9.57;;;26.10;86.80;;;;;;5041307;28;20490;-48
2022/07/22 07:57:14;;;;;;;14.83;9.50;;;26.30;87.00;;;;;;5037569;28;20510;-49
2022/07/22 07:59:41;;;;;;;13.20;9.60;;;26.30;86.60;;;;;;5040763;28;20488;-49
2022/07/22 08:02:09;;;;;;;12.27;10.43;;;26.40;85.80;;;;;;5038949;28;20483;-49
2022/07/22 08:04:36;;;;;;;12.67;10.33;;;26.40;85.60;;;;;;5040552;28;20471;-48
2022/07/22 08:07:03;;;;;;;13.07;9.00;;;26.60;85.50;;;;;;5038915;28;20487;-49
2022/07/22 08:09:30;;;;;;;12.40;9.87;;;26.70;85.20;;;;;;5039513;28;21287;-51
2022/07/22 08:11:59;;;;;;;15.43;9.90;;;26.90;85.20;;;;;;5038982;28;20467;-48
2022/07/22 08:14:25;;;;;;;10.63;9.47;;;27.00;84.80;;;;;;5038694;28;20596;-48
2022/07/22 08:16:52;;;;;;;12.30;10.13;;;27.00;85.30;;;;;;5036890;28;20870;-48
2022/07/22 08:19:19;;;;;;;17.40;10.93;;;27.20;84.30;;;;;;5039954;28;20475;-48
2022/07/22 08:21:46;;;;;;;12.57;8.97;;;27.30;84.40;;;;;;5039691;28;20480;-48
2022/07/22 08:24:13;;;;;;;10.50;9.10;;;27.50;84.40;;;;;;5034465;28;20491;-48
2022/07/22 08:26:39;;;;;;;13.90;8.80;;;27.70;83.10;;;;;;5037413;28;20482;-49
2022/07/22 08:29:09;;;;;;;12.43;9.47;;;27.80;83.30;;;;;;5040476;28;20483;-49
2022/07/22 08:31:37;;;;;;;10.47;8.97;;;27.90;82.80;;;;;;5039793;28;20888;-49
2022/07/22 08:34:04;;;;;;;11.17;9.00;;;28.10;81.80;;;;;;5039763;28;21120;-49
2022/07/22 08:36:31;;;;;;;10.40;9.40;;;28.20;82.20;;;;;;5039578;28;20502;-49
2022/07/22 08:38:58;;;;;;;11.17;9.50;;;28.40;81.50;;;;;;5027226;28;20479;-49
2022/07/22 08:41:25;;;;;;;12.77;11.13;;;28.50;80.30;;;;;;5039152;28;20471;-49
2022/07/22 08:43:53;;;;;;;13.83;10.60;;;28.70;80.00;;;;;;5039380;28;20484;-49
2022/07/22 08:46:21;;;;;;;15.60;9.50;;;28.70;81.10;;;;;;5039596;28;20459;-52
2022/07/22 08:48:48;;;;;;;10.50;9.17;;;28.80;79.30;;;;;;5038014;28;20476;-49
2022/07/22 08:51:14;;;;;;;10.13;9.17;;;29.00;80.30;;;;;;5040173;28;20848;-54
2022/07/22 08:53:41;;;;;;;10.43;9.30;;;29.10;79.90;;;;;;5037761;28;20483;-49
2022/07/22 08:56:08;;;;;;;10.70;8.70;;;29.20;78.10;;;;;;5038971;28;20486;-50
2022/07/22 08:58:35;;;;;;;13.17;9.60;;;29.30;77.70;;;;;;5044064;28;20490;-50
2022/07/22 09:01:07;;;;;;;14.90;9.87;;;29.40;78.20;;;;;;5043951;28;20476;-50
2022/07/22 09:03:45;;;;;;;11.70;8.33;;;29.50;78.30;;;;;;5031873;28;20476;-50
2022/07/22 09:06:12;;;;;;;11.83;9.10;;;29.60;77.70;;;;;;5041478;28;20462;-51
2022/07/22 09:08:52;;;;;;;16.53;10.40;;;29.50;74.70;;;;;;5044250;28;20831;-50
2022/07/22 09:11:19;;;;;;;15.83;9.20;;;29.50;78.80;;;;;;5042019;28;20475;-50
2022/07/22 09:13:48;;;;;;;10.00;8.97;;;29.60;77.40;;;;;;5044082;28;20484;-51
2022/07/22 09:16:15;;;;;;;9.53;8.47;;;29.90;77.20;;;;;;5042403;28;20457;-54
2022/07/22 09:18:52;;;;;;;10.77;9.00;;;30.00;76.50;;;;;;5034956;28;20826;-51
2022/07/22 09:21:20;;;;;;;11.90;9.90;;;30.20;77.20;;;;;;5053068;28;21004;-51
2022/07/22 09:23:47;;;;;;;14.30;9.70;;;30.20;77.00;;;;;;5039202;28;20486;-51
2022/07/22 09:26:30;;;;;;;9.00;8.20;;;30.70;75.60;;;;;;5041380;28;20483;-51
2022/07/22 09:28:58;;;;;;;12.70;10.07;;;30.80;73.50;;;;;;5042865;28;20479;-50
2022/07/22 09:31:26;;;;;;;10.43;9.43;;;30.80;73.40;;;;;;5042838;28;20490;-51
2022/07/22 09:33:55;;;;;;;10.07;9.07;;;30.80;73.90;;;;;;5039064;28;20533;-51
2022/07/22 09:36:22;;;;;;;13.70;9.97;;;30.90;74.50;;;;;;5040409;28;20987;-51
2022/07/22 09:38:49;;;;;;;9.93;9.00;;;30.90;74.70;;;;;;5043296;28;20508;-51
2022/07/22 09:41:16;;;;;;;10.70;9.40;;;31.00;73.30;;;;;;5037840;28;20454;-51
2022/07/22 09:43:43;;;;;;;11.60;9.93;;;31.10;73.40;;;;;;5043068;28;20458;-50
2022/07/22 09:46:10;;;;;;;10.63;9.60;;;30.90;73.10;;;;;;5040383;28;21123;-51
2022/07/22 09:48:38;;;;;;;14.13;9.90;;;30.90;71.80;;;;;;5041694;28;21367;-51
2022/07/22 09:51:06;;;;;;;10.90;9.80;;;30.40;71.80;;;;;;5042855;28;20458;-51
2022/07/22 09:53:34;;;;;;;10.10;9.20;;;;;;;;;;5041824;28;20486;-51
2022/07/22 09:56:03;;;;;;;11.43;10.23;;;30.80;74.20;;;;;;5041580;28;20483;-50
2022/07/22 09:58:30;;;;;;;9.67;8.77;;;30.80;73.10;;;;;;5042924;28;20484;-51
2022/07/22 10:01:00;;;;;;;11.80;8.67;;;31.10;73.30;;;;;;5040909;28;20463;-51
2022/07/22 10:03:28;;;;;;;10.37;9.27;;;31.20;73.20;;;;;;5041023;28;20507;-51
2022/07/22 10:05:56;;;;;;;9.70;8.90;;;31.20;71.90;;;;;;5040031;28;20463;-51
2022/07/22 10:08:26;;;;;;;10.13;9.13;;;31.30;72.30;;;;;;5035826;28;20487;-51
2022/07/22 10:10:54;;;;;;;12.70;9.87;;;31.40;71.40;;;;;;5049213;28;20505;-51
2022/07/22 10:13:21;;;;;;;12.23;10.43;;;31.40;71.50;;;;;;5042863;28;21421;-51
2022/07/22 10:15:48;;;;;;;18.73;7.83;;;31.60;72.00;;;;;;5039853;28;20451;-52
2022/07/22 10:18:18;;;;;;;12.03;9.90;;;31.40;69.60;;;;;;5039694;28;20451;-49
2022/07/22 10:20:46;;;;;;;9.97;9.00;;;31.50;71.90;;;;;;5039216;28;20438;-48
2022/07/22 10:23:14;;;;;;;11.57;9.10;;;31.60;70.60;;;;;;5039227;28;20470;-49
2022/07/22 10:25:53;;;;;;;9.97;8.97;;;31.60;70.80;;;;;;5038224;28;20978;-49
2022/07/22 10:28:25;;;;;;;9.67;8.87;;;31.90;71.80;;;;;;5041415;28;20479;-50
2022/07/22 10:30:53;;;;;;;12.00;8.97;;;32.10;70.80;;;;;;5036259;28;21610;-52
2022/07/22 10:33:21;;;;;;;14.73;11.30;;;32.20;70.50;;;;;;5041632;28;20468;-52
2022/07/22 10:35:56;;;;;;;9.47;8.30;;;32.40;70.70;;;;;;5040034;28;21081;-52
2022/07/22 10:38:23;;;;;;;9.40;8.50;;;32.50;68.30;;;;;;5036591;28;21162;-52
2022/07/22 10:40:54;;;;;;;8.67;7.73;;;32.70;69.80;;;;;;5035994;28;20492;-51
2022/07/22 10:43:24;;;;;;;10.53;9.43;;;32.80;69.50;;;;;;5039997;28;20482;-52
2022/07/22 10:45:53;;;;;;;11.03;9.40;;;33.00;68.60;;;;;;5040546;28;20471;-51
2022/07/22 10:48:25;;;;;;;10.60;9.50;;;33.20;67.60;;;;;;5045224;28;20487;-50
2022/07/22 10:51:07;;;;;;;10.13;9.10;;;33.20;66.30;;;;;;5039924;28;20992;-49
2022/07/22 10:53:46;;;;;;;15.50;9.47;;;33.20;68.30;;;;;;5036090;28;20474;-50
2022/07/22 10:56:20;;;;;;;9.87;8.70;;;33.30;67.50;;;;;;5027825;28;20589;-50
2022/07/22 10:59:09;;;;;;;10.30;9.40;;;33.40;66.80;;;;;;5047734;28;20461;-50
2022/07/22 11:01:38;;;;;;;10.00;9.10;;;33.30;64.60;;;;;;5039750;28;21283;-49
2022/07/22 11:04:10;;;;;;;13.80;8.47;;;33.40;65.50;;;;;;5042114;28;20462;-50
2022/07/22 11:06:37;;;;;;;11.53;9.17;;;33.20;65.10;;;;;;5040527;28;20454;-50
2022/07/22 11:09:07;;;;;;;10.23;8.83;;;33.30;67.30;;;;;;5041193;28;20450;-51
2022/07/22 11:11:42;;;;;;;11.00;8.47;;;33.50;65.60;;;;;;5039687;28;20973;-50
2022/07/22 11:14:13;;;;;;;9.47;8.40;;;33.60;65.90;;;;;;5039729;28;20912;-50
2022/07/22 11:16:41;;;;;;;14.40;9.33;;;33.70;65.70;;;;;;5038702;28;20475;-50
2022/07/22 11:19:08;;;;;;;11.00;9.40;;;33.90;66.50;;;;;;5040640;28;20475;-50
2022/07/22 11:21:36;;;;;;;9.50;8.50;;;33.90;64.00;;;;;;5040497;28;20480;-49
2022/07/22 11:24:05;;;;;;;9.90;8.60;;;33.80;63.50;;;;;;5040833;28;20484;-50
2022/07/22 11:26:41;;;;;;;10.30;9.30;;;33.40;61.20;;;;;;5039627;28;20514;-50
2022/07/22 11:29:09;;;;;;;11.90;7.97;;;33.30;65.60;;;;;;5041361;28;20484;-50
2022/07/22 11:31:36;;;;;;;13.03;8.67;;;33.40;65.90;;;;;;5039753;28;20961;-51
2022/07/22 11:34:11;;;;;;;9.17;8.20;;;33.40;63.90;;;;;;5040169;28;20525;-51
2022/07/22 11:36:40;;;;;;;14.27;9.03;;;33.30;63.90;;;;;;5039658;28;20488;-50
2022/07/22 11:39:08;;;;;;;9.07;8.07;;;33.20;64.00;;;;;;5038639;28;20450;-50
2022/07/22 11:41:37;;;;;;;9.43;8.63;;;33.20;65.00;;;;;;5040559;28;20458;-50
2022/07/22 11:44:05;;;;;;;9.10;8.30;;;33.30;65.70;;;;;;5033845;28;20860;-51
2022/07/22 11:46:37;;;;;;;11.33;9.40;;;33.80;64.20;;;;;;5045531;28;20454;-50
2022/07/22 11:49:03;;;;;;;9.03;8.23;;;33.90;64.30;;;;;;5037316;28;20462;-51
2022/07/22 11:51:32;;;;;;;9.37;8.53;;;34.10;64.40;;;;;;5040806;28;21420;-51
2022/07/22 11:53:59;;;;;;;9.57;8.60;;;34.20;62.90;;;;;;5039000;28;20462;-51
2022/07/22 11:56:27;;;;;;;8.30;7.60;;;34.60;63.60;;;;;;5038362;28;20500;-51
2022/07/22 11:58:56;;;;;;;8.40;7.60;;;34.60;61.40;;;;;;5036856;28;20523;-51
2022/07/22 12:01:24;;;;;;;9.27;7.90;;;34.80;62.80;;;;;;5038594;28;20963;-51
2022/07/22 12:03:53;;;;;;;8.43;7.63;;;34.90;61.50;;;;;;5037867;28;20453;-51
2022/07/22 12:06:21;;;;;;;9.03;8.23;;;35.10;61.80;;;;;;5035311;28;20458;-52
2022/07/22 12:08:50;;;;;;;8.13;7.43;;;35.20;61.30;;;;;;5037122;28;20897;-52
2022/07/22 12:11:18;;;;;;;8.03;7.33;;;35.30;61.80;;;;;;5038468;28;20484;-51
2022/07/22 12:13:47;;;;;;;8.80;8.00;;;35.40;61.30;;;;;;5039712;28;20450;-51
2022/07/22 12:16:26;;;;;;;8.43;7.67;;;35.40;60.30;;;;;;5032502;28;20802;-52
2022/07/22 12:18:57;;;;;;;8.40;7.30;;;34.90;58.30;;;;;;5026636;28;20554;-50
2022/07/22 12:21:26;;;;;;;8.77;7.97;;;34.40;58.00;;;;;;5038537;28;20480;-49
2022/07/22 12:23:55;;;;;;;8.90;8.00;;;34.00;60.00;;;;;;5037717;28;20927;-49
2022/07/22 12:26:38;;;;;;;8.60;7.23;;;34.10;59.80;;;;;;5035907;28;20694;-51
2022/07/22 12:29:22;;;;;;;10.20;8.00;;;33.90;60.80;;;;;;5033305;28;20501;-48
2022/07/22 12:31:52;;;;;;;8.40;7.70;;;33.70;58.70;;;;;;5021429;28;20472;-49
2022/07/22 12:34:34;;;;;;;9.70;8.07;;;33.60;59.20;;;;;;5037021;28;20466;-50
2022/07/22 12:37:03;;;;;;;8.23;7.53;;;33.80;59.90;;;;;;5043549;28;20457;-49